sensor_id;sensor_type;location;lat;lon;timestamp;pressure;altitude;pressure_sealevel;temperature
40245;BMP280;25963;42.694;23.600;2024-02-04T00:01:54;95596.78;;;-0.47
40245;BMP280;25963;42.694;23.600;2024-02-04T00:04:19;95594.94;;;-0.50
40245;BMP280;25963;42.694;23.600;2024-02-04T00:06:45;95592.69;;;-0.51
40245;BMP280;25963;42.694;23.600;2024-02-04T00:09:10;95596.81;;;-0.50
40245;BMP280;25963;42.694;23.600;2024-02-04T00:11:35;95596.44;;;-0.52
40245;BMP280;25963;42.694;23.600;2024-02-04T00:14:01;95600.19;;;-0.50
40245;BMP280;25963;42.694;23.600;2024-02-04T00:16:28;95603.94;;;-0.51
40245;BMP280;25963;42.694;23.600;2024-02-04T00:18:53;95602.41;;;-0.45
40245;BMP280;25963;42.694;23.600;2024-02-04T00:21:18;95600.19;;;-0.50
40245;BMP280;25963;42.694;23.600;2024-02-04T00:23:44;95595.31;;;-0.48
40245;BMP280;25963;42.694;23.600;2024-02-04T00:26:09;95593.34;;;-0.33
40245;BMP280;25963;42.694;23.600;2024-02-04T00:28:35;95608.28;;;-0.23
40245;BMP280;25963;42.694;23.600;2024-02-04T00:31:00;95593.56;;;-0.14
40245;BMP280;25963;42.694;23.600;2024-02-04T00:33:25;95604.38;;;-0.05
40245;BMP280;25963;42.694;23.600;2024-02-04T00:35:51;95608.09;;;-0.02
40245;BMP280;25963;42.694;23.600;2024-02-04T00:38:16;95604.03;;;-0.07
40245;BMP280;25963;42.694;23.600;2024-02-04T00:40:42;95602.56;;;-0.11
40245;BMP280;25963;42.694;23.600;2024-02-04T00:43:07;95608.19;;;-0.13
40245;BMP280;25963;42.694;23.600;2024-02-04T00:45:33;95605.22;;;-0.15
40245;BMP280;25963;42.694;23.600;2024-02-04T00:47:58;95604.84;;;-0.17
40245;BMP280;25963;42.694;23.600;2024-02-04T00:50:24;95600.75;;;-0.21
40245;BMP280;25963;42.694;23.600;2024-02-04T00:52:49;95571.69;;;-0.44
40245;BMP280;25963;42.694;23.600;2024-02-04T00:55:15;95610.50;;;-0.22
40245;BMP280;25963;42.694;23.600;2024-02-04T00:57:40;95598.53;;;-0.23
40245;BMP280;25963;42.694;23.600;2024-02-04T01:00:07;95604.16;;;-0.24
40245;BMP280;25963;42.694;23.600;2024-02-04T01:02:33;95603.78;;;-0.23
40245;BMP280;25963;42.694;23.600;2024-02-04T01:04:59;95597.75;;;-0.20
40245;BMP280;25963;42.694;23.600;2024-02-04T01:07:24;95597.75;;;-0.20
40245;BMP280;25963;42.694;23.600;2024-02-04T01:09:50;95604.91;;;-0.24
40245;BMP280;25963;42.694;23.600;2024-02-04T01:12:15;95606.00;;;-0.25
40245;BMP280;25963;42.694;23.600;2024-02-04T01:14:41;95603.41;;;-0.25
40245;BMP280;25963;42.694;23.600;2024-02-04T01:17:06;95591.84;;;-0.31
40245;BMP280;25963;42.694;23.600;2024-02-04T01:19:32;95597.09;;;-0.31
40245;BMP280;25963;42.694;23.600;2024-02-04T01:21:58;95600.06;;;-0.29
40245;BMP280;25963;42.694;23.600;2024-02-04T01:24:23;95605.31;;;-0.29
40245;BMP280;25963;42.694;23.600;2024-02-04T01:26:49;95592.94;;;-0.28
40245;BMP280;25963;42.694;23.600;2024-02-04T01:29:14;95597.09;;;-0.31
40245;BMP280;25963;42.694;23.600;2024-02-04T01:31:39;95599.31;;;-0.29
40245;BMP280;25963;42.694;23.600;2024-02-04T01:34:05;95589.22;;;-0.31
40245;BMP280;25963;42.694;23.600;2024-02-04T01:36:30;95510.91;;;-0.80
40245;BMP280;25963;42.694;23.600;2024-02-04T01:38:56;95576.47;;;-0.36
40245;BMP280;25963;42.694;23.600;2024-02-04T01:41:21;95579.88;;;-0.39
40245;BMP280;25963;42.694;23.600;2024-02-04T01:43:47;95585.16;;;-0.42
40245;BMP280;25963;42.694;23.600;2024-02-04T01:46:12;95485.31;;;-1.13
40245;BMP280;25963;42.694;23.600;2024-02-04T01:48:39;95581.09;;;-0.54
40245;BMP280;25963;42.694;23.600;2024-02-04T01:51:05;95565.38;;;-0.54
40245;BMP280;25963;42.694;23.600;2024-02-04T01:53:32;95564.28;;;-0.60
40245;BMP280;25963;42.694;23.600;2024-02-04T01:55:58;95570.28;;;-0.60
40245;BMP280;25963;42.694;23.600;2024-02-04T01:58:24;95580.44;;;-0.65
40245;BMP280;25963;42.694;23.600;2024-02-04T02:00:50;95569.59;;;-0.71
40245;BMP280;25963;42.694;23.600;2024-02-04T02:03:16;95571.13;;;-0.73
40245;BMP280;25963;42.694;23.600;2024-02-04T02:05:41;95565.16;;;-0.77
40245;BMP280;25963;42.694;23.600;2024-02-04T02:08:07;95555.47;;;-0.80
40245;BMP280;25963;42.694;23.600;2024-02-04T02:10:32;95562.97;;;-0.86
40245;BMP280;25963;42.694;23.600;2024-02-04T02:13:16;95515.97;;;-1.14
40245;BMP280;25963;42.694;23.600;2024-02-04T02:15:52;95563.34;;;-0.91
40245;BMP280;25963;42.694;23.600;2024-02-04T02:18:25;95555.50;;;-0.91
40245;BMP280;25963;42.694;23.600;2024-02-04T02:26:38;95554.63;;;-0.67
40245;BMP280;25963;42.694;23.600;2024-02-04T02:29:07;95545.53;;;-0.04
40245;BMP280;25963;42.694;23.600;2024-02-04T02:31:37;95549.91;;;0.44
40245;BMP280;25963;42.694;23.600;2024-02-04T02:34:03;95546.09;;;0.79
40245;BMP280;25963;42.694;23.600;2024-02-04T02:36:30;95558.78;;;1.14
40245;BMP280;25963;42.694;23.600;2024-02-04T02:39:07;95557.63;;;1.42
40245;BMP280;25963;42.694;23.600;2024-02-04T02:41:35;95559.59;;;1.61
40245;BMP280;25963;42.694;23.600;2024-02-04T02:44:03;95557.81;;;1.77
40245;BMP280;25963;42.694;23.600;2024-02-04T02:46:30;95555.75;;;1.89
40245;BMP280;25963;42.694;23.600;2024-02-04T02:48:55;95553.28;;;2.01
40245;BMP280;25963;42.694;23.600;2024-02-04T02:51:21;95552.31;;;2.15
40245;BMP280;25963;42.694;23.600;2024-02-04T02:53:47;95546.34;;;2.30
40245;BMP280;25963;42.694;23.600;2024-02-04T02:56:12;95546.94;;;2.38
40245;BMP280;25963;42.694;23.600;2024-02-04T02:58:37;95544.59;;;2.43
40245;BMP280;25963;42.694;23.600;2024-02-04T03:01:03;95549.75;;;2.51
40245;BMP280;25963;42.694;23.600;2024-02-04T03:03:28;95543.53;;;2.61
40245;BMP280;25963;42.694;23.600;2024-02-04T03:05:54;95544.09;;;2.68
40245;BMP280;25963;42.694;23.600;2024-02-04T03:08:19;95544.97;;;2.81
40245;BMP280;25963;42.694;23.600;2024-02-04T03:10:44;95534.09;;;2.95
40245;BMP280;25963;42.694;23.600;2024-02-04T03:13:10;95544.75;;;3.08
40245;BMP280;25963;42.694;23.600;2024-02-04T03:15:35;95537.88;;;3.14
40245;BMP280;25963;42.694;23.600;2024-02-04T03:18:00;95540.31;;;3.21
40245;BMP280;25963;42.694;23.600;2024-02-04T03:20:26;95541.25;;;3.31
40245;BMP280;25963;42.694;23.600;2024-02-04T03:22:51;95536.53;;;3.38
40245;BMP280;25963;42.694;23.600;2024-02-04T03:25:17;95476.59;;;3.06
40245;BMP280;25963;42.694;23.600;2024-02-04T03:27:42;95532.56;;;3.46
40245;BMP280;25963;42.694;23.600;2024-02-04T03:30:08;95540.66;;;3.55
40245;BMP280;25963;42.694;23.600;2024-02-04T03:32:33;95544.88;;;3.53
40245;BMP280;25963;42.694;23.600;2024-02-04T03:35:02;95538.00;;;3.55
40245;BMP280;25963;42.694;23.600;2024-02-04T03:37:28;95541.06;;;3.54
40245;BMP280;25963;42.694;23.600;2024-02-04T03:39:53;95540.72;;;3.52
40245;BMP280;25963;42.694;23.600;2024-02-04T03:42:19;95528.88;;;3.44
40245;BMP280;25963;42.694;23.600;2024-02-04T03:44:46;95541.97;;;3.47
40245;BMP280;25963;42.694;23.600;2024-02-04T03:47:12;95461.44;;;2.94
40245;BMP280;25963;42.694;23.600;2024-02-04T03:49:37;95489.91;;;3.19
40245;BMP280;25963;42.694;23.600;2024-02-04T03:52:03;95524.09;;;3.39
40245;BMP280;25963;42.694;23.600;2024-02-04T03:54:28;95517.66;;;3.40
40245;BMP280;25963;42.694;23.600;2024-02-04T03:56:54;95512.38;;;3.40
40245;BMP280;25963;42.694;23.600;2024-02-04T03:59:19;95508.09;;;3.46
40245;BMP280;25963;42.694;23.600;2024-02-04T04:01:53;95508.75;;;3.50
40245;BMP280;25963;42.694;23.600;2024-02-04T04:04:20;95510.56;;;3.53
40245;BMP280;25963;42.694;23.600;2024-02-04T04:06:46;95515.84;;;3.53
40245;BMP280;25963;42.694;23.600;2024-02-04T04:09:11;95508.25;;;3.55
40245;BMP280;25963;42.694;23.600;2024-02-04T04:11:37;95519.44;;;3.59
40245;BMP280;25963;42.694;23.600;2024-02-04T04:14:02;95507.41;;;3.58
40245;BMP280;25963;42.694;23.600;2024-02-04T04:16:28;95523.06;;;3.65
40245;BMP280;25963;42.694;23.600;2024-02-04T04:18:54;95448.00;;;3.21
40245;BMP280;25963;42.694;23.600;2024-02-04T04:21:19;95512.16;;;3.79
40245;BMP280;25963;42.694;23.600;2024-02-04T04:23:44;95509.25;;;3.90
40245;BMP280;25963;42.694;23.600;2024-02-04T04:26:10;95497.75;;;3.96
40245;BMP280;25963;42.694;23.600;2024-02-04T04:28:35;95509.88;;;3.94
40245;BMP280;25963;42.694;23.600;2024-02-04T04:31:01;95506.41;;;3.97
40245;BMP280;25963;42.694;23.600;2024-02-04T04:33:26;95513.16;;;3.98
40245;BMP280;25963;42.694;23.600;2024-02-04T04:35:52;95516.22;;;3.96
40245;BMP280;25963;42.694;23.600;2024-02-04T04:38:17;95519.94;;;3.99
40245;BMP280;25963;42.694;23.600;2024-02-04T04:40:43;95525.22;;;3.99
40245;BMP280;25963;42.694;23.600;2024-02-04T04:43:08;95527.47;;;4.00
40245;BMP280;25963;42.694;23.600;2024-02-04T04:45:33;95529.59;;;4.05
40245;BMP280;25963;42.694;23.600;2024-02-04T04:47:59;95527.66;;;4.06
40245;BMP280;25963;42.694;23.600;2024-02-04T04:50:24;95517.53;;;4.04
40245;BMP280;25963;42.694;23.600;2024-02-04T04:52:50;95513.00;;;4.05
40245;BMP280;25963;42.694;23.600;2024-02-04T04:55:15;95522.00;;;4.07
40245;BMP280;25963;42.694;23.600;2024-02-04T04:57:41;95508.34;;;4.09
40245;BMP280;25963;42.694;23.600;2024-02-04T05:00:07;95511.75;;;4.09
40245;BMP280;25963;42.694;23.600;2024-02-04T05:02:35;95498.13;;;4.11
40245;BMP280;25963;42.694;23.600;2024-02-04T05:05:01;95503.06;;;4.09
40245;BMP280;25963;42.694;23.600;2024-02-04T05:07:26;95515.88;;;4.10
40245;BMP280;25963;42.694;23.600;2024-02-04T05:09:52;95523.38;;;4.12
40245;BMP280;25963;42.694;23.600;2024-02-04T05:12:17;95515.44;;;4.12
40245;BMP280;25963;42.694;23.600;2024-02-04T05:14:43;95499.28;;;4.10
40245;BMP280;25963;42.694;23.600;2024-02-04T05:17:08;95502.75;;;4.07
40245;BMP280;25963;42.694;23.600;2024-02-04T05:19:35;95514.88;;;4.04
40245;BMP280;25963;42.694;23.600;2024-02-04T05:22:00;95510.88;;;4.00
40245;BMP280;25963;42.694;23.600;2024-02-04T05:24:26;95524.56;;;3.95
40245;BMP280;25963;42.694;23.600;2024-02-04T05:26:51;95523.19;;;3.90
40245;BMP280;25963;42.694;23.600;2024-02-04T05:29:17;95527.09;;;3.86
40245;BMP280;25963;42.694;23.600;2024-02-04T05:31:43;95536.59;;;3.83
40245;BMP280;25963;42.694;23.600;2024-02-04T05:34:09;95520.00;;;3.83
40245;BMP280;25963;42.694;23.600;2024-02-04T05:36:35;95519.06;;;3.73
40245;BMP280;25963;42.694;23.600;2024-02-04T05:39:14;95532.03;;;3.84
40245;BMP280;25963;42.694;23.600;2024-02-04T05:41:40;95521.06;;;3.85
40245;BMP280;25963;42.694;23.600;2024-02-04T05:44:06;95530.03;;;3.88
40245;BMP280;25963;42.694;23.600;2024-02-04T05:46:36;95533.34;;;3.92
40245;BMP280;25963;42.694;23.600;2024-02-04T05:49:02;95506.47;;;3.81
40245;BMP280;25963;42.694;23.600;2024-02-04T05:51:27;95533.06;;;4.02
40245;BMP280;25963;42.694;23.600;2024-02-04T05:53:53;95539.41;;;4.05
40245;BMP280;25963;42.694;23.600;2024-02-04T05:56:19;95528.84;;;4.05
40245;BMP280;25963;42.694;23.600;2024-02-04T05:58:45;95529.41;;;4.12
40245;BMP280;25963;42.694;23.600;2024-02-04T06:01:11;95529.28;;;4.16
40245;BMP280;25963;42.694;23.600;2024-02-04T06:03:36;95478.91;;;3.82
40245;BMP280;25963;42.694;23.600;2024-02-04T06:06:02;95533.38;;;4.33
40245;BMP280;25963;42.694;23.600;2024-02-04T06:08:27;95541.09;;;4.40
40245;BMP280;25963;42.694;23.600;2024-02-04T06:10:53;95542.38;;;4.48
40245;BMP280;25963;42.694;23.600;2024-02-04T06:13:18;95546.28;;;4.56
40245;BMP280;25963;42.694;23.600;2024-02-04T06:15:44;95538.59;;;4.62
40245;BMP280;25963;42.694;23.600;2024-02-04T06:18:09;95550.56;;;4.66
40245;BMP280;25963;42.694;23.600;2024-02-04T06:20:34;95543.56;;;4.72
40245;BMP280;25963;42.694;23.600;2024-02-04T06:23:00;95548.00;;;4.75
40245;BMP280;25963;42.694;23.600;2024-02-04T06:25:26;95547.59;;;4.77
40245;BMP280;25963;42.694;23.600;2024-02-04T06:27:51;95569.81;;;4.79
40245;BMP280;25963;42.694;23.600;2024-02-04T06:30:17;95564.09;;;4.81
40245;BMP280;25963;42.694;23.600;2024-02-04T06:32:42;95570.44;;;4.83
40245;BMP280;25963;42.694;23.600;2024-02-04T06:35:08;95578.72;;;4.85
40245;BMP280;25963;42.694;23.600;2024-02-04T06:37:33;95589.19;;;4.89
40245;BMP280;25963;42.694;23.600;2024-02-04T06:39:59;95586.22;;;4.87
40245;BMP280;25963;42.694;23.600;2024-02-04T06:42:24;95590.97;;;4.92
40245;BMP280;25963;42.694;23.600;2024-02-04T06:44:49;95588.22;;;4.95
40245;BMP280;25963;42.694;23.600;2024-02-04T06:47:15;95600.19;;;5.00
40245;BMP280;25963;42.694;23.600;2024-02-04T06:49:44;95549.59;;;4.73
40245;BMP280;25963;42.694;23.600;2024-02-04T06:52:12;95602.94;;;5.09
40245;BMP280;25963;42.694;23.600;2024-02-04T06:54:38;95594.47;;;5.14
40245;BMP280;25963;42.694;23.600;2024-02-04T06:57:03;95598.09;;;5.20
40245;BMP280;25963;42.694;23.600;2024-02-04T06:59:29;95602.44;;;5.27
40245;BMP280;25963;42.694;23.600;2024-02-04T07:01:54;95593.97;;;5.32
40245;BMP280;25963;42.694;23.600;2024-02-04T07:04:20;95592.69;;;5.36
40245;BMP280;25963;42.694;23.600;2024-02-04T07:06:54;95594.38;;;5.43
40245;BMP280;25963;42.694;23.600;2024-02-04T07:09:19;95605.16;;;5.48
40245;BMP280;25963;42.694;23.600;2024-02-04T07:11:45;95593.28;;;5.53
40245;BMP280;25963;42.694;23.600;2024-02-04T07:14:25;95602.06;;;5.62
40245;BMP280;25963;42.694;23.600;2024-02-04T07:16:50;95604.50;;;5.69
40245;BMP280;25963;42.694;23.600;2024-02-04T07:19:16;95606.19;;;5.76
40245;BMP280;25963;42.694;23.600;2024-02-04T07:21:41;95602.84;;;5.85
40245;BMP280;25963;42.694;23.600;2024-02-04T07:24:07;95600.94;;;5.98
40245;BMP280;25963;42.694;23.600;2024-02-04T07:26:32;95602.91;;;6.06
40245;BMP280;25963;42.694;23.600;2024-02-04T07:28:58;95594.31;;;6.02
40245;BMP280;25963;42.694;23.600;2024-02-04T07:31:23;95603.19;;;6.21
40245;BMP280;25963;42.694;23.600;2024-02-04T07:33:49;95616.38;;;6.33
40245;BMP280;25963;42.694;23.600;2024-02-04T07:36:14;95606.97;;;6.41
40245;BMP280;25963;42.694;23.600;2024-02-04T07:38:40;95613.22;;;6.47
40245;BMP280;25963;42.694;23.600;2024-02-04T07:41:05;95611.03;;;6.55
40245;BMP280;25963;42.694;23.600;2024-02-04T07:43:31;95606.09;;;6.66
40245;BMP280;25963;42.694;23.600;2024-02-04T07:45:56;95582.34;;;6.63
40245;BMP280;25963;42.694;23.600;2024-02-04T07:48:21;95610.03;;;6.83
40245;BMP280;25963;42.694;23.600;2024-02-04T07:50:47;95595.75;;;6.90
40245;BMP280;25963;42.694;23.600;2024-02-04T07:53:15;95598.41;;;6.90
40245;BMP280;25963;42.694;23.600;2024-02-04T07:55:40;95600.91;;;6.93
40245;BMP280;25963;42.694;23.600;2024-02-04T07:58:06;95584.88;;;6.97
40245;BMP280;25963;42.694;23.600;2024-02-04T08:00:31;95588.13;;;7.01
40245;BMP280;25963;42.694;23.600;2024-02-04T08:02:57;95586.41;;;7.16
40245;BMP280;25963;42.694;23.600;2024-02-04T08:05:22;95598.84;;;7.28
40245;BMP280;25963;42.694;23.600;2024-02-04T08:07:48;95600.38;;;7.38
40245;BMP280;25963;42.694;23.600;2024-02-04T08:10:13;95600.38;;;7.47
40245;BMP280;25963;42.694;23.600;2024-02-04T08:12:40;95597.88;;;7.53
40245;BMP280;25963;42.694;23.600;2024-02-04T08:15:06;95607.81;;;7.61
40245;BMP280;25963;42.694;23.600;2024-02-04T08:17:32;95595.81;;;7.66
40245;BMP280;25963;42.694;23.600;2024-02-04T08:19:58;95590.69;;;7.71
40245;BMP280;25963;42.694;23.600;2024-02-04T08:22:24;95595.09;;;7.83
40245;BMP280;25963;42.694;23.600;2024-02-04T08:24:49;95581.41;;;7.94
40245;BMP280;25963;42.694;23.600;2024-02-04T08:27:16;95589.94;;;8.07
40245;BMP280;25963;42.694;23.600;2024-02-04T08:29:43;95594.06;;;8.17
40245;BMP280;25963;42.694;23.600;2024-02-04T08:32:08;95584.31;;;8.23
40245;BMP280;25963;42.694;23.600;2024-02-04T08:34:34;95582.69;;;8.26
40245;BMP280;25963;42.694;23.600;2024-02-04T08:36:59;95588.44;;;8.33
40245;BMP280;25963;42.694;23.600;2024-02-04T08:39:24;95584.16;;;8.36
40245;BMP280;25963;42.694;23.600;2024-02-04T08:41:51;95590.03;;;8.49
40245;BMP280;25963;42.694;23.600;2024-02-04T08:44:16;95570.34;;;8.55
40245;BMP280;25963;42.694;23.600;2024-02-04T08:46:42;95574.22;;;8.54
40245;BMP280;25963;42.694;23.600;2024-02-04T08:49:07;95506.91;;;8.12
40245;BMP280;25963;42.694;23.600;2024-02-04T08:51:33;95581.56;;;8.59
40245;BMP280;25963;42.694;23.600;2024-02-04T08:53:58;95582.47;;;8.56
40245;BMP280;25963;42.694;23.600;2024-02-04T08:56:23;95587.63;;;8.60
40245;BMP280;25963;42.694;23.600;2024-02-04T08:58:49;95570.19;;;8.59
40245;BMP280;25963;42.694;23.600;2024-02-04T09:01:14;95582.31;;;8.60
40245;BMP280;25963;42.694;23.600;2024-02-04T09:03:40;95589.41;;;8.63
40245;BMP280;25963;42.694;23.600;2024-02-04T09:06:05;95589.06;;;8.70
40245;BMP280;25963;42.694;23.600;2024-02-04T09:08:31;95580.94;;;8.83
40245;BMP280;25963;42.694;23.600;2024-02-04T09:10:56;95585.88;;;8.99
40245;BMP280;25963;42.694;23.600;2024-02-04T09:13:22;95573.34;;;9.14
40245;BMP280;25963;42.694;23.600;2024-02-04T09:15:49;95587.28;;;9.32
40245;BMP280;25963;42.694;23.600;2024-02-04T09:18:14;95591.69;;;9.44
40245;BMP280;25963;42.694;23.600;2024-02-04T09:20:40;95589.72;;;9.54
40245;BMP280;25963;42.694;23.600;2024-02-04T09:23:06;95579.72;;;9.64
40245;BMP280;25963;42.694;23.600;2024-02-04T09:25:31;95581.41;;;9.76
40245;BMP280;25963;42.694;23.600;2024-02-04T09:27:56;95590.03;;;9.85
40245;BMP280;25963;42.694;23.600;2024-02-04T09:30:22;95597.50;;;9.81
40245;BMP280;25963;42.694;23.600;2024-02-04T09:32:48;95588.66;;;9.75
40245;BMP280;25963;42.694;23.600;2024-02-04T09:35:13;95587.88;;;9.60
40245;BMP280;25963;42.694;23.600;2024-02-04T09:37:39;95597.06;;;9.59
40245;BMP280;25963;42.694;23.600;2024-02-04T09:40:04;95594.28;;;9.53
40245;BMP280;25963;42.694;23.600;2024-02-04T09:42:30;95587.75;;;9.54
40245;BMP280;25963;42.694;23.600;2024-02-04T09:44:57;95548.28;;;9.29
40245;BMP280;25963;42.694;23.600;2024-02-04T09:47:22;95593.25;;;9.75
40245;BMP280;25963;42.694;23.600;2024-02-04T09:49:48;95588.22;;;9.77
40245;BMP280;25963;42.694;23.600;2024-02-04T09:52:18;95594.25;;;9.77
40245;BMP280;25963;42.694;23.600;2024-02-04T09:54:58;95596.41;;;9.73
40245;BMP280;25963;42.694;23.600;2024-02-04T09:57:24;95539.84;;;9.31
40245;BMP280;25963;42.694;23.600;2024-02-04T09:59:49;95592.81;;;9.76
40245;BMP280;25963;42.694;23.600;2024-02-04T10:02:15;95570.47;;;9.74
40245;BMP280;25963;42.694;23.600;2024-02-04T10:04:41;95571.88;;;9.84
40245;BMP280;25963;42.694;23.600;2024-02-04T10:07:06;95576.84;;;9.91
40245;BMP280;25963;42.694;23.600;2024-02-04T10:09:32;95503.97;;;9.55
40245;BMP280;25963;42.694;23.600;2024-02-04T10:11:57;95567.38;;;10.04
40245;BMP280;25963;42.694;23.600;2024-02-04T10:14:23;95571.88;;;10.13
40245;BMP280;25963;42.694;23.600;2024-02-04T10:16:49;95477.03;;;9.53
40245;BMP280;25963;42.694;23.600;2024-02-04T10:19:14;95562.97;;;10.16
40245;BMP280;25963;42.694;23.600;2024-02-04T10:21:40;95566.66;;;10.18
40245;BMP280;25963;42.694;23.600;2024-02-04T10:24:06;95570.63;;;10.23
40245;BMP280;25963;42.694;23.600;2024-02-04T10:26:31;95575.06;;;10.26
40245;BMP280;25963;42.694;23.600;2024-02-04T10:28:59;95565.38;;;10.28
40245;BMP280;25963;42.694;23.600;2024-02-04T10:31:25;95571.72;;;10.31
40245;BMP280;25963;42.694;23.600;2024-02-04T10:33:51;95559.03;;;10.26
40245;BMP280;25963;42.694;23.600;2024-02-04T10:36:17;95557.25;;;10.37
40245;BMP280;25963;42.694;23.600;2024-02-04T10:38:42;95562.50;;;10.47
40245;BMP280;25963;42.694;23.600;2024-02-04T10:41:13;95570.03;;;10.48
40245;BMP280;25963;42.694;23.600;2024-02-04T10:43:42;95566.56;;;10.42
40245;BMP280;25963;42.694;23.600;2024-02-04T10:46:20;95565.47;;;10.34
40245;BMP280;25963;42.694;23.600;2024-02-04T10:48:55;95564.63;;;10.28
40245;BMP280;25963;42.694;23.600;2024-02-04T10:51:27;95569.31;;;10.18
40245;BMP280;25963;42.694;23.600;2024-02-04T10:53:55;95567.88;;;10.17
40245;BMP280;25963;42.694;23.600;2024-02-04T10:56:41;95566.38;;;10.16
40245;BMP280;25963;42.694;23.600;2024-02-04T10:59:07;95527.53;;;9.86
40245;BMP280;25963;42.694;23.600;2024-02-04T11:01:35;95557.44;;;10.19
40245;BMP280;25963;42.694;23.600;2024-02-04T11:04:02;95559.22;;;10.22
40245;BMP280;25963;42.694;23.600;2024-02-04T11:06:28;95559.28;;;10.28
40245;BMP280;25963;42.694;23.600;2024-02-04T11:08:55;95551.13;;;10.31
40245;BMP280;25963;42.694;23.600;2024-02-04T11:11:21;95463.28;;;9.84
40245;BMP280;25963;42.694;23.600;2024-02-04T11:13:50;95551.47;;;10.39
40245;BMP280;25963;42.694;23.600;2024-02-04T11:16:40;95547.44;;;10.44
40245;BMP280;25963;42.694;23.600;2024-02-04T11:19:44;95542.16;;;10.49
40245;BMP280;25963;42.694;23.600;2024-02-04T11:22:22;95539.28;;;10.53
40245;BMP280;25963;42.694;23.600;2024-02-04T11:27:39;95545.66;;;10.55
40245;BMP280;25963;42.694;23.600;2024-02-04T11:30:05;95532.03;;;10.53
40245;BMP280;25963;42.694;23.600;2024-02-04T11:32:30;95522.91;;;10.60
40245;BMP280;25963;42.694;23.600;2024-02-04T11:34:56;95535.66;;;10.70
40245;BMP280;25963;42.694;23.600;2024-02-04T11:37:26;95521.47;;;10.79
40245;BMP280;25963;42.694;23.600;2024-02-04T11:39:53;95523.28;;;10.87
40245;BMP280;25963;42.694;23.600;2024-02-04T11:42:22;95531.94;;;10.97
40245;BMP280;25963;42.694;23.600;2024-02-04T11:44:48;95519.09;;;11.01
40245;BMP280;25963;42.694;23.600;2024-02-04T11:47:23;95519.03;;;10.95
40245;BMP280;25963;42.694;23.600;2024-02-04T11:49:57;95523.34;;;10.93
40245;BMP280;25963;42.694;23.600;2024-02-04T11:52:26;95522.09;;;10.88
40245;BMP280;25963;42.694;23.600;2024-02-04T11:54:52;95511.72;;;10.76
40245;BMP280;25963;42.694;23.600;2024-02-04T11:57:18;95512.09;;;10.83
40245;BMP280;25963;42.694;23.600;2024-02-04T11:59:43;95512.34;;;10.85
40245;BMP280;25963;42.694;23.600;2024-02-04T12:02:10;95464.72;;;10.64
40245;BMP280;25963;42.694;23.600;2024-02-04T12:04:37;95512.50;;;10.96
40245;BMP280;25963;42.694;23.600;2024-02-04T12:07:05;95514.34;;;10.90
40245;BMP280;25963;42.694;23.600;2024-02-04T12:09:30;95464.09;;;10.54
40245;BMP280;25963;42.694;23.600;2024-02-04T12:11:57;95489.03;;;10.86
40245;BMP280;25963;42.694;23.600;2024-02-04T12:14:22;95477.88;;;10.87
40245;BMP280;25963;42.694;23.600;2024-02-04T12:16:48;95489.13;;;10.91
40245;BMP280;25963;42.694;23.600;2024-02-04T12:19:13;95492.78;;;10.94
40245;BMP280;25963;42.694;23.600;2024-02-04T12:21:39;95433.22;;;10.48
40245;BMP280;25963;42.694;23.600;2024-02-04T12:24:05;95491.72;;;10.86
40245;BMP280;25963;42.694;23.600;2024-02-04T12:26:30;95486.81;;;10.84
40245;BMP280;25963;42.694;23.600;2024-02-04T12:28:56;95478.56;;;10.82
40245;BMP280;25963;42.694;23.600;2024-02-04T12:31:25;95477.09;;;10.81
40245;BMP280;25963;42.694;23.600;2024-02-04T12:33:55;95465.00;;;10.86
40245;BMP280;25963;42.694;23.600;2024-02-04T12:36:30;95467.75;;;10.91
40245;BMP280;25963;42.694;23.600;2024-02-04T12:38:57;95470.50;;;10.97
40245;BMP280;25963;42.694;23.600;2024-02-04T12:41:23;95464.34;;;11.11
40245;BMP280;25963;42.694;23.600;2024-02-04T12:43:50;95467.59;;;11.20
40245;BMP280;25963;42.694;23.600;2024-02-04T12:46:16;95461.56;;;11.26
40245;BMP280;25963;42.694;23.600;2024-02-04T12:48:42;95465.72;;;11.27
40245;BMP280;25963;42.694;23.600;2024-02-04T12:51:08;95456.19;;;11.20
40245;BMP280;25963;42.694;23.600;2024-02-04T12:53:35;95458.59;;;11.18
40245;BMP280;25963;42.694;23.600;2024-02-04T12:56:01;95457.53;;;11.10
40245;BMP280;25963;42.694;23.600;2024-02-04T12:58:26;95457.94;;;11.03
40245;BMP280;25963;42.694;23.600;2024-02-04T13:01:01;95448.66;;;10.98
40245;BMP280;25963;42.694;23.600;2024-02-04T13:03:28;95453.03;;;11.01
40245;BMP280;25963;42.694;23.600;2024-02-04T13:05:59;95454.59;;;11.08
40245;BMP280;25963;42.694;23.600;2024-02-04T13:08:25;95455.00;;;11.21
40245;BMP280;25963;42.694;23.600;2024-02-04T13:10:56;95392.78;;;11.00
40245;BMP280;25963;42.694;23.600;2024-02-04T13:13:21;95457.25;;;11.54
40245;BMP280;25963;42.694;23.600;2024-02-04T13:15:47;95385.19;;;11.13
40245;BMP280;25963;42.694;23.600;2024-02-04T13:18:12;95452.84;;;11.76
40245;BMP280;25963;42.694;23.600;2024-02-04T13:20:41;95467.22;;;11.79
40245;BMP280;25963;42.694;23.600;2024-02-04T13:23:07;95379.94;;;11.25
40245;BMP280;25963;42.694;23.600;2024-02-04T13:25:33;95458.28;;;11.62
40245;BMP280;25963;42.694;23.600;2024-02-04T13:27:58;95455.75;;;11.53
40245;BMP280;25963;42.694;23.600;2024-02-04T13:30:24;95464.16;;;11.40
40245;BMP280;25963;42.694;23.600;2024-02-04T13:32:50;95464.06;;;11.29
40245;BMP280;25963;42.694;23.600;2024-02-04T13:35:16;95470.41;;;11.11
40245;BMP280;25963;42.694;23.600;2024-02-04T13:37:43;95462.25;;;11.00
40245;BMP280;25963;42.694;23.600;2024-02-04T13:40:16;95451.19;;;10.87
40245;BMP280;25963;42.694;23.600;2024-02-04T13:42:42;95451.59;;;10.80
40245;BMP280;25963;42.694;23.600;2024-02-04T13:45:08;95450.38;;;10.81
40245;BMP280;25963;42.694;23.600;2024-02-04T13:47:34;95458.59;;;10.78
40245;BMP280;25963;42.694;23.600;2024-02-04T13:50:00;95454.13;;;10.69
40245;BMP280;25963;42.694;23.600;2024-02-04T13:52:25;95454.19;;;10.75
40245;BMP280;25963;42.694;23.600;2024-02-04T13:54:51;95456.88;;;10.75
40245;BMP280;25963;42.694;23.600;2024-02-04T13:57:16;95451.97;;;10.73
40245;BMP280;25963;42.694;23.600;2024-02-04T13:59:42;95398.44;;;10.42
40245;BMP280;25963;42.694;23.600;2024-02-04T14:02:08;95459.88;;;11.02
40245;BMP280;25963;42.694;23.600;2024-02-04T14:04:36;95471.25;;;11.23
40245;BMP280;25963;42.694;23.600;2024-02-04T14:07:02;95459.03;;;11.37
40245;BMP280;25963;42.694;23.600;2024-02-04T14:09:27;95456.75;;;11.50